sensor_id;sensor_type;location;lat;lon;timestamp;pressure;altitude;pressure_sealevel;temperature;humidity
1926;BME280;964;42.606;23.588;2023-02-05T00:01:35;94526.19;;;8.36;41.57
1926;BME280;964;42.606;23.588;2023-02-05T00:04:02;94532.13;;;8.45;41.21
1926;BME280;964;42.606;23.588;2023-02-05T00:06:29;94541.97;;;8.88;40.77
1926;BME280;964;42.606;23.588;2023-02-05T00:08:57;94541.44;;;8.55;41.42
1926;BME280;964;42.606;23.588;2023-02-05T00:11:24;94548.31;;;9.15;40.59
1926;BME280;964;42.606;23.588;2023-02-05T00:13:51;94552.75;;;8.83;40.34
1926;BME280;964;42.606;23.588;2023-02-05T00:16:19;94536.63;;;9.16;40.17
1926;BME280;964;42.606;23.588;2023-02-05T00:18:46;94552.00;;;8.82;40.67
1926;BME280;964;42.606;23.588;2023-02-05T00:21:14;94548.94;;;9.40;39.82
1926;BME280;964;42.606;23.588;2023-02-05T00:23:41;94544.81;;;9.26;39.53
1926;BME280;964;42.606;23.588;2023-02-05T00:26:10;94550.00;;;9.07;39.96
1926;BME280;964;42.606;23.588;2023-02-05T00:28:37;94544.91;;;9.14;39.42
1926;BME280;964;42.606;23.588;2023-02-05T00:31:07;94549.88;;;9.31;39.59
1926;BME280;964;42.606;23.588;2023-02-05T00:33:34;94558.88;;;8.31;40.71
1926;BME280;964;42.606;23.588;2023-02-05T00:36:00;94561.22;;;8.89;40.70
1926;BME280;964;42.606;23.588;2023-02-05T00:38:28;94564.00;;;8.80;40.34
1926;BME280;964;42.606;23.588;2023-02-05T00:40:55;94564.84;;;8.56;41.45
1926;BME280;964;42.606;23.588;2023-02-05T00:43:23;94573.13;;;8.82;40.37
1926;BME280;964;42.606;23.588;2023-02-05T00:45:49;94579.66;;;8.73;40.79
1926;BME280;964;42.606;23.588;2023-02-05T00:48:16;94587.41;;;8.54;41.34
1926;BME280;964;42.606;23.588;2023-02-05T00:50:43;94579.56;;;8.97;40.41
1926;BME280;964;42.606;23.588;2023-02-05T00:53:09;94582.34;;;8.61;40.38
1926;BME280;964;42.606;23.588;2023-02-05T00:55:36;94583.41;;;8.72;40.61
1926;BME280;964;42.606;23.588;2023-02-05T00:58:03;94592.50;;;8.47;40.81
1926;BME280;964;42.606;23.588;2023-02-05T01:00:31;94596.94;;;8.30;41.21
1926;BME280;964;42.606;23.588;2023-02-05T01:02:58;94599.91;;;8.69;40.55
1926;BME280;964;42.606;23.588;2023-02-05T01:05:25;94599.25;;;8.72;40.44
1926;BME280;964;42.606;23.588;2023-02-05T01:07:52;94597.31;;;8.57;41.02
1926;BME280;964;42.606;23.588;2023-02-05T01:10:19;94604.34;;;8.65;40.08
1926;BME280;964;42.606;23.588;2023-02-05T01:12:47;94594.50;;;8.38;41.22
1926;BME280;964;42.606;23.588;2023-02-05T01:15:14;94589.25;;;8.93;39.83
1926;BME280;964;42.606;23.588;2023-02-05T01:17:42;94603.03;;;8.59;40.73
1926;BME280;964;42.606;23.588;2023-02-05T01:20:10;94597.84;;;8.62;40.49
1926;BME280;964;42.606;23.588;2023-02-05T01:22:38;94595.72;;;9.23;39.86
1926;BME280;964;42.606;23.588;2023-02-05T01:25:06;94592.16;;;8.88;40.45
1926;BME280;964;42.606;23.588;2023-02-05T01:27:33;94593.22;;;8.99;39.56
1926;BME280;964;42.606;23.588;2023-02-05T01:30:00;94600.00;;;9.00;40.23
1926;BME280;964;42.606;23.588;2023-02-05T01:32:27;94600.00;;;9.00;39.96
1926;BME280;964;42.606;23.588;2023-02-05T01:34:55;94603.25;;;8.54;40.91
1926;BME280;964;42.606;23.588;2023-02-05T01:37:22;94598.56;;;8.75;40.29
1926;BME280;964;42.606;23.588;2023-02-05T01:39:49;94608.00;;;8.48;40.53
1926;BME280;964;42.606;23.588;2023-02-05T01:42:18;94610.66;;;8.48;40.46
1926;BME280;964;42.606;23.588;2023-02-05T01:47:45;94601.94;;;9.15;39.72
1926;BME280;964;42.606;23.588;2023-02-05T01:50:13;94613.75;;;8.78;39.86
1926;BME280;964;42.606;23.588;2023-02-05T01:52:40;94613.09;;;8.81;40.56
1926;BME280;964;42.606;23.588;2023-02-05T01:55:07;94618.03;;;8.18;40.75
1926;BME280;964;42.606;23.588;2023-02-05T01:57:35;94606.75;;;8.70;40.07
1926;BME280;964;42.606;23.588;2023-02-05T02:00:04;94613.34;;;8.64;40.03
1926;BME280;964;42.606;23.588;2023-02-05T02:02:33;94621.19;;;8.24;40.32
1926;BME280;964;42.606;23.588;2023-02-05T02:05:06;94633.75;;;8.15;40.52
1926;BME280;964;42.606;23.588;2023-02-05T02:07:35;94628.31;;;8.60;39.78
1926;BME280;964;42.606;23.588;2023-02-05T02:10:05;94627.03;;;8.17;41.07
1926;BME280;964;42.606;23.588;2023-02-05T02:12:34;94629.78;;;8.09;40.38
1926;BME280;964;42.606;23.588;2023-02-05T02:15:07;94630.28;;;8.75;39.55
1926;BME280;964;42.606;23.588;2023-02-05T02:17:36;94618.59;;;9.04;38.56
1926;BME280;964;42.606;23.588;2023-02-05T02:20:06;94625.72;;;8.48;39.84
1926;BME280;964;42.606;23.588;2023-02-05T02:22:57;94640.22;;;8.54;39.48
1926;BME280;964;42.606;23.588;2023-02-05T02:26:06;94640.22;;;8.54;40.01
1926;BME280;964;42.606;23.588;2023-02-05T02:28:42;94632.56;;;8.49;39.71
1926;BME280;964;42.606;23.588;2023-02-05T02:31:12;94636.72;;;8.25;39.97
1926;BME280;964;42.606;23.588;2023-02-05T02:33:45;94635.16;;;8.61;39.29
1926;BME280;964;42.606;23.588;2023-02-05T02:36:18;94633.88;;;8.18;40.06
1926;BME280;964;42.606;23.588;2023-02-05T02:38:52;94636.00;;;8.77;39.18
1926;BME280;964;42.606;23.588;2023-02-05T02:41:24;94642.44;;;8.27;40.08
1926;BME280;964;42.606;23.588;2023-02-05T02:43:56;94642.13;;;8.05;39.96
1926;BME280;964;42.606;23.588;2023-02-05T02:46:27;94643.50;;;7.66;40.92
1926;BME280;964;42.606;23.588;2023-02-05T02:48:58;94640.13;;;8.14;39.77
1926;BME280;964;42.606;23.588;2023-02-05T02:51:27;94637.59;;;8.17;39.81
1926;BME280;964;42.606;23.588;2023-02-05T02:53:56;94637.38;;;8.34;39.38
1926;BME280;964;42.606;23.588;2023-02-05T02:56:26;94644.84;;;7.84;40.60
1926;BME280;964;42.606;23.588;2023-02-05T02:58:57;94650.22;;;7.87;40.88
1926;BME280;964;42.606;23.588;2023-02-05T03:01:29;94647.94;;;8.47;39.75
1926;BME280;964;42.606;23.588;2023-02-05T03:04:01;94645.06;;;7.91;40.42
1926;BME280;964;42.606;23.588;2023-02-05T03:06:30;94656.09;;;8.29;39.71
1926;BME280;964;42.606;23.588;2023-02-05T03:09:00;94650.56;;;8.47;39.71
1926;BME280;964;42.606;23.588;2023-02-05T03:11:30;94651.97;;;8.68;39.12
1926;BME280;964;42.606;23.588;2023-02-05T03:13:58;94645.00;;;8.36;39.76
1926;BME280;964;42.606;23.588;2023-02-05T03:16:26;94657.16;;;8.16;39.87
1926;BME280;964;42.606;23.588;2023-02-05T03:18:53;94658.25;;;8.27;39.91
1926;BME280;964;42.606;23.588;2023-02-05T03:21:24;94647.69;;;8.27;40.11
1926;BME280;964;42.606;23.588;2023-02-05T03:23:53;94655.72;;;7.70;40.17
1926;BME280;964;42.606;23.588;2023-02-05T03:26:24;94664.00;;;8.17;39.50
1926;BME280;964;42.606;23.588;2023-02-05T03:28:52;94656.53;;;8.44;38.93
1926;BME280;964;42.606;23.588;2023-02-05T03:31:25;94664.00;;;8.17;39.99
1926;BME280;964;42.606;23.588;2023-02-05T03:34:06;94662.44;;;8.16;40.16
1926;BME280;964;42.606;23.588;2023-02-05T03:36:42;94661.03;;;8.55;39.00
1926;BME280;964;42.606;23.588;2023-02-05T03:39:23;94662.28;;;8.33;40.00
1926;BME280;964;42.606;23.588;2023-02-05T03:42:01;94656.91;;;7.61;40.77
1926;BME280;964;42.606;23.588;2023-02-05T03:45:10;94671.38;;;7.43;41.20
1926;BME280;964;42.606;23.588;2023-02-05T03:47:48;94666.41;;;7.86;40.69
1926;BME280;964;42.606;23.588;2023-02-05T03:50:27;94662.03;;;8.26;40.13
1926;BME280;964;42.606;23.588;2023-02-05T03:53:01;94664.00;;;8.17;39.61
1926;BME280;964;42.606;23.588;2023-02-05T03:55:35;94666.81;;;8.73;38.98
1926;BME280;964;42.606;23.588;2023-02-05T03:58:08;94673.50;;;8.30;39.43
1926;BME280;964;42.606;23.588;2023-02-05T04:00:36;94673.56;;;7.98;40.07
1926;BME280;964;42.606;23.588;2023-02-05T04:03:06;94670.63;;;8.88;38.14
1926;BME280;964;42.606;23.588;2023-02-05T04:05:33;94677.59;;;7.95;39.71
1926;BME280;964;42.606;23.588;2023-02-05T04:07:59;94680.69;;;7.97;40.25
1926;BME280;964;42.606;23.588;2023-02-05T04:10:26;94682.16;;;8.43;39.02
1926;BME280;964;42.606;23.588;2023-02-05T04:12:53;94686.88;;;8.25;39.84
1926;BME280;964;42.606;23.588;2023-02-05T04:15:20;94679.28;;;7.43;40.18
1926;BME280;964;42.606;23.588;2023-02-05T04:17:46;94686.19;;;7.92;40.31
1926;BME280;964;42.606;23.588;2023-02-05T04:20:14;94687.50;;;7.98;39.67
1926;BME280;964;42.606;23.588;2023-02-05T04:22:41;94691.31;;;7.31;40.82
1926;BME280;964;42.606;23.588;2023-02-05T04:25:08;94664.91;;;12.01;32.90
1926;BME280;964;42.606;23.588;2023-02-05T04:27:35;94666.78;;;11.77;32.79
1926;BME280;964;42.606;23.588;2023-02-05T04:30:02;94669.19;;;11.86;32.60
1926;BME280;964;42.606;23.588;2023-02-05T04:32:31;94674.38;;;11.60;33.15
1926;BME280;964;42.606;23.588;2023-02-05T04:34:58;94670.56;;;11.76;32.70
1926;BME280;964;42.606;23.588;2023-02-05T04:37:26;94683.63;;;11.27;33.21
1926;BME280;964;42.606;23.588;2023-02-05T04:39:53;94687.63;;;10.83;33.34
1926;BME280;964;42.606;23.588;2023-02-05T04:42:19;94692.72;;;11.07;33.51
1926;BME280;964;42.606;23.588;2023-02-05T04:44:46;94685.28;;;11.74;32.41
1926;BME280;964;42.606;23.588;2023-02-05T04:47:12;94692.16;;;11.17;33.22
1926;BME280;964;42.606;23.588;2023-02-05T04:49:39;94699.47;;;10.70;33.98
1926;BME280;964;42.606;23.588;2023-02-05T04:52:06;94690.03;;;11.26;33.05
1926;BME280;964;42.606;23.588;2023-02-05T04:54:35;94697.22;;;10.53;35.01
1926;BME280;964;42.606;23.588;2023-02-05T04:57:02;94691.16;;;11.45;33.14
1926;BME280;964;42.606;23.588;2023-02-05T04:59:28;94696.03;;;10.85;33.26
1926;BME280;964;42.606;23.588;2023-02-05T05:01:57;94668.53;;;15.65;27.23
1926;BME280;964;42.606;23.588;2023-02-05T05:04:23;94690.66;;;13.58;29.47
1926;BME280;964;42.606;23.588;2023-02-05T05:06:50;94702.53;;;13.34;29.21
1926;BME280;964;42.606;23.588;2023-02-05T05:09:17;94699.88;;;13.67;28.83
1926;BME280;964;42.606;23.588;2023-02-05T05:11:46;94699.53;;;13.69;29.08
1926;BME280;964;42.606;23.588;2023-02-05T05:14:13;94703.66;;;13.03;29.17
1926;BME280;964;42.606;23.588;2023-02-05T05:16:39;94696.31;;;13.23;29.13
1926;BME280;964;42.606;23.588;2023-02-05T05:19:06;94704.13;;;14.12;28.64
1926;BME280;964;42.606;23.588;2023-02-05T05:21:33;94700.97;;;13.30;29.44
1926;BME280;964;42.606;23.588;2023-02-05T05:23:59;94711.06;;;13.47;29.35
1926;BME280;964;42.606;23.588;2023-02-05T05:26:26;94715.69;;;12.97;29.44
1926;BME280;964;42.606;23.588;2023-02-05T05:28:55;94706.19;;;13.89;28.70
1926;BME280;964;42.606;23.588;2023-02-05T05:31:23;94711.44;;;13.49;29.25
1926;BME280;964;42.606;23.588;2023-02-05T05:33:50;94719.84;;;13.84;28.84
1926;BME280;964;42.606;23.588;2023-02-05T05:36:17;94716.25;;;14.06;28.04
1926;BME280;964;42.606;23.588;2023-02-05T05:38:44;94722.13;;;14.22;27.61
1926;BME280;964;42.606;23.588;2023-02-05T05:41:17;94727.03;;;14.17;28.25
1926;BME280;964;42.606;23.588;2023-02-05T05:44:03;94730.78;;;14.12;28.26
1926;BME280;964;42.606;23.588;2023-02-05T05:46:30;94732.09;;;14.33;28.27
1926;BME280;964;42.606;23.588;2023-02-05T05:48:59;94722.94;;;14.74;27.55
1926;BME280;964;42.606;23.588;2023-02-05T05:51:27;94732.28;;;14.13;28.33
1926;BME280;964;42.606;23.588;2023-02-05T05:53:54;94734.25;;;14.16;27.95
1926;BME280;964;42.606;23.588;2023-02-05T05:56:21;94737.97;;;14.96;26.88
1926;BME280;964;42.606;23.588;2023-02-05T05:58:48;94740.84;;;14.30;28.04
1926;BME280;964;42.606;23.588;2023-02-05T06:01:17;94747.13;;;14.48;27.37
1926;BME280;964;42.606;23.588;2023-02-05T06:03:46;94741.38;;;14.93;26.90
1926;BME280;964;42.606;23.588;2023-02-05T06:06:13;94750.47;;;14.85;27.28
1926;BME280;964;42.606;23.588;2023-02-05T06:08:40;94751.69;;;14.98;26.93
1926;BME280;964;42.606;23.588;2023-02-05T06:11:06;94755.84;;;14.92;27.12
1926;BME280;964;42.606;23.588;2023-02-05T06:13:33;94753.34;;;14.66;27.08
1926;BME280;964;42.606;23.588;2023-02-05T06:16:00;94744.31;;;14.78;27.28
1926;BME280;964;42.606;23.588;2023-02-05T06:18:28;94760.00;;;14.39;27.81
1926;BME280;964;42.606;23.588;2023-02-05T06:20:55;94771.03;;;14.04;28.37
1926;BME280;964;42.606;23.588;2023-02-05T06:23:21;94769.47;;;14.80;27.00
1926;BME280;964;42.606;23.588;2023-02-05T06:25:48;94774.41;;;14.34;27.00
1926;BME280;964;42.606;23.588;2023-02-05T06:28:15;94769.13;;;14.38;27.96
1926;BME280;964;42.606;23.588;2023-02-05T06:30:41;94778.00;;;14.15;27.55
1926;BME280;964;42.606;23.588;2023-02-05T06:33:08;94781.53;;;13.90;27.73
1926;BME280;964;42.606;23.588;2023-02-05T06:35:37;94784.16;;;15.07;26.79
1926;BME280;964;42.606;23.588;2023-02-05T06:38:03;94783.09;;;14.68;27.43
1926;BME280;964;42.606;23.588;2023-02-05T06:40:30;94788.59;;;15.44;26.65
1926;BME280;964;42.606;23.588;2023-02-05T06:42:57;94786.13;;;15.83;26.28
1926;BME280;964;42.606;23.588;2023-02-05T06:45:23;94798.59;;;13.55;28.69
1926;BME280;964;42.606;23.588;2023-02-05T06:47:50;94805.72;;;14.07;27.60
1926;BME280;964;42.606;23.588;2023-02-05T06:50:20;94798.66;;;13.59;28.91
1926;BME280;964;42.606;23.588;2023-02-05T06:52:48;94801.41;;;13.99;28.42
1926;BME280;964;42.606;23.588;2023-02-05T06:55:15;94806.94;;;14.94;27.39
1926;BME280;964;42.606;23.588;2023-02-05T06:57:42;94818.94;;;14.00;28.05
1926;BME280;964;42.606;23.588;2023-02-05T07:00:10;94819.59;;;14.57;27.31
1926;BME280;964;42.606;23.588;2023-02-05T07:02:37;94817.25;;;14.52;27.96
1926;BME280;964;42.606;23.588;2023-02-05T07:05:04;94812.03;;;14.66;27.81
1926;BME280;964;42.606;23.588;2023-02-05T07:07:31;94810.91;;;15.14;27.04
1926;BME280;964;42.606;23.588;2023-02-05T07:10:00;94818.53;;;13.65;29.24
1926;BME280;964;42.606;23.588;2023-02-05T07:12:27;94815.00;;;13.87;27.97
1926;BME280;964;42.606;23.588;2023-02-05T07:14:53;94828.75;;;13.93;27.94
1926;BME280;964;42.606;23.588;2023-02-05T07:17:20;94822.84;;;14.10;27.93
1926;BME280;964;42.606;23.588;2023-02-05T07:19:47;94821.69;;;14.41;27.20
1926;BME280;964;42.606;23.588;2023-02-05T07:22:14;94825.31;;;14.25;27.26
1926;BME280;964;42.606;23.588;2023-02-05T07:24:41;94833.59;;;14.94;27.18
1926;BME280;964;42.606;23.588;2023-02-05T07:27:09;94827.22;;;15.60;26.53
1926;BME280;964;42.606;23.588;2023-02-05T07:29:36;94830.16;;;15.45;26.76
1926;BME280;964;42.606;23.588;2023-02-05T07:32:03;94832.56;;;15.57;26.36
1926;BME280;964;42.606;23.588;2023-02-05T07:34:29;94835.88;;;14.92;26.86
1926;BME280;964;42.606;23.588;2023-02-05T07:36:56;94843.69;;;15.11;26.58
1926;BME280;964;42.606;23.588;2023-02-05T07:39:23;94841.53;;;15.35;26.26
1926;BME280;964;42.606;23.588;2023-02-05T07:41:49;94837.19;;;16.64;25.10
1926;BME280;964;42.606;23.588;2023-02-05T07:44:19;94836.72;;;16.41;25.51
1926;BME280;964;42.606;23.588;2023-02-05T07:46:45;94834.91;;;16.80;24.82
1926;BME280;964;42.606;23.588;2023-02-05T07:49:13;94829.94;;;17.03;25.36
1926;BME280;964;42.606;23.588;2023-02-05T07:51:39;94846.38;;;16.91;24.96
1926;BME280;964;42.606;23.588;2023-02-05T07:54:06;94838.22;;;17.97;24.04
1926;BME280;964;42.606;23.588;2023-02-05T07:56:33;94842.94;;;17.58;23.69
1926;BME280;964;42.606;23.588;2023-02-05T07:59:00;94853.22;;;16.57;24.74
1926;BME280;964;42.606;23.588;2023-02-05T08:01:29;94842.19;;;17.04;23.75
1926;BME280;964;42.606;23.588;2023-02-05T08:03:56;94850.38;;;16.14;25.31
1926;BME280;964;42.606;23.588;2023-02-05T08:06:23;94849.81;;;16.81;25.25
1926;BME280;964;42.606;23.588;2023-02-05T08:08:49;94848.19;;;18.00;23.32
1926;BME280;964;42.606;23.588;2023-02-05T08:11:17;94847.44;;;17.89;23.41
1926;BME280;964;42.606;23.588;2023-02-05T08:13:44;94851.31;;;17.88;23.50
1926;BME280;964;42.606;23.588;2023-02-05T08:16:11;94849.66;;;18.16;23.62
1926;BME280;964;42.606;23.588;2023-02-05T08:18:41;94861.19;;;18.05;23.84
1926;BME280;964;42.606;23.588;2023-02-05T08:21:08;94862.44;;;18.70;23.28
1926;BME280;964;42.606;23.588;2023-02-05T08:23:35;94865.38;;;18.93;22.59
1926;BME280;964;42.606;23.588;2023-02-05T08:26:01;94863.38;;;19.56;21.85
1926;BME280;964;42.606;23.588;2023-02-05T08:28:28;94884.97;;;16.69;24.50
1926;BME280;964;42.606;23.588;2023-02-05T08:30:55;94873.50;;;17.96;22.82
1926;BME280;964;42.606;23.588;2023-02-05T08:33:22;94873.88;;;18.81;22.67
1926;BME280;964;42.606;23.588;2023-02-05T08:35:51;94885.03;;;19.31;21.63
1926;BME280;964;42.606;23.588;2023-02-05T08:38:17;94885.28;;;18.99;21.28
1926;BME280;964;42.606;23.588;2023-02-05T08:40:44;94891.50;;;20.23;20.60
1926;BME280;964;42.606;23.588;2023-02-05T08:43:11;94887.69;;;20.54;19.88
1926;BME280;964;42.606;23.588;2023-02-05T08:45:38;94882.00;;;21.06;19.88
1926;BME280;964;42.606;23.588;2023-02-05T08:48:04;94878.88;;;20.80;19.18
1926;BME280;964;42.606;23.588;2023-02-05T08:50:31;94871.41;;;20.65;17.94
1926;BME280;964;42.606;23.588;2023-02-05T08:52:59;94865.59;;;21.89;17.80
1926;BME280;964;42.606;23.588;2023-02-05T08:55:26;94864.41;;;22.14;17.56
1926;BME280;964;42.606;23.588;2023-02-05T08:57:52;94867.56;;;21.66;19.26
1926;BME280;964;42.606;23.588;2023-02-05T09:00:19;94885.84;;;21.04;19.68
1926;BME280;964;42.606;23.588;2023-02-05T09:02:46;94874.97;;;22.83;18.39
1926;BME280;964;42.606;23.588;2023-02-05T09:05:13;94877.97;;;23.05;17.50
1926;BME280;964;42.606;23.588;2023-02-05T09:07:40;94892.72;;;21.36;18.15
1926;BME280;964;42.606;23.588;2023-02-05T09:10:10;94888.50;;;22.83;17.46
1926;BME280;964;42.606;23.588;2023-02-05T09:12:38;94896.13;;;21.40;18.07
1926;BME280;964;42.606;23.588;2023-02-05T09:15:05;94889.66;;;22.82;17.01
1926;BME280;964;42.606;23.588;2023-02-05T09:17:32;94897.31;;;23.36;16.90
1926;BME280;964;42.606;23.588;2023-02-05T09:19:59;94890.31;;;24.73;15.68
1926;BME280;964;42.606;23.588;2023-02-05T09:22:25;94896.13;;;22.49;17.13
1926;BME280;964;42.606;23.588;2023-02-05T09:24:52;94910.22;;;20.67;17.93
1926;BME280;964;42.606;23.588;2023-02-05T09:27:21;94901.38;;;22.56;17.19
1926;BME280;964;42.606;23.588;2023-02-05T09:29:47;94905.22;;;22.94;16.70
1926;BME280;964;42.606;23.588;2023-02-05T09:32:14;94899.78;;;23.95;16.50
1926;BME280;964;42.606;23.588;2023-02-05T09:34:41;94894.31;;;24.81;15.71
1926;BME280;964;42.606;23.588;2023-02-05T09:37:08;94911.19;;;22.66;16.43
1926;BME280;964;42.606;23.588;2023-02-05T09:39:34;94916.78;;;21.23;18.16
1926;BME280;964;42.606;23.588;2023-02-05T09:42:09;94915.75;;;22.30;17.40
1926;BME280;964;42.606;23.588;2023-02-05T09:44:55;94933.81;;;20.19;18.22
1926;BME280;964;42.606;23.588;2023-02-05T09:47:31;94932.91;;;21.27;17.54
1926;BME280;964;42.606;23.588;2023-02-05T09:50:03;94929.88;;;19.89;18.00
1926;BME280;964;42.606;23.588;2023-02-05T09:52:36;94922.75;;;21.84;17.10
1926;BME280;964;42.606;23.588;2023-02-05T09:55:10;94916.88;;;22.13;17.78
1926;BME280;964;42.606;23.588;2023-02-05T09:57:43;94923.41;;;22.35;16.71
1926;BME280;964;42.606;23.588;2023-02-05T10:00:18;94931.75;;;20.97;17.19
1926;BME280;964;42.606;23.588;2023-02-05T10:02:50;94948.97;;;21.34;17.14
1926;BME280;964;42.606;23.588;2023-02-05T10:05:21;94933.19;;;22.06;17.11
1926;BME280;964;42.606;23.588;2023-02-05T10:07:56;94933.34;;;22.38;16.88
1926;BME280;964;42.606;23.588;2023-02-05T10:10:27;94947.50;;;22.03;16.91
1926;BME280;964;42.606;23.588;2023-02-05T10:13:12;94947.97;;;20.94;17.46
1926;BME280;964;42.606;23.588;2023-02-05T10:18:54;94923.78;;;22.92;16.63
1926;BME280;964;42.606;23.588;2023-02-05T10:21:37;94918.34;;;23.64;16.19
1926;BME280;964;42.606;23.588;2023-02-05T10:24:28;94922.38;;;23.88;16.83
1926;BME280;964;42.606;23.588;2023-02-05T10:27:01;94918.59;;;24.72;15.66
1926;BME280;964;42.606;23.588;2023-02-05T10:29:35;94927.44;;;23.38;16.61
1926;BME280;964;42.606;23.588;2023-02-05T10:32:17;94941.38;;;21.75;17.96
1926;BME280;964;42.606;23.588;2023-02-05T10:34:52;94930.09;;;23.74;16.39
1926;BME280;964;42.606;23.588;2023-02-05T10:37:29;94925.41;;;25.06;15.93
1926;BME280;964;42.606;23.588;2023-02-05T10:39:59;94929.91;;;23.97;15.94
1926;BME280;964;42.606;23.588;2023-02-05T10:42:32;94936.25;;;22.08;18.26
1926;BME280;964;42.606;23.588;2023-02-05T10:45:07;94954.38;;;21.57;17.39
1926;BME280;964;42.606;23.588;2023-02-05T10:47:57;94956.84;;;19.82;19.69
1926;BME280;964;42.606;23.588;2023-02-05T10:50:29;94956.44;;;18.63;20.25
1926;BME280;964;42.606;23.588;2023-02-05T10:52:56;94957.59;;;18.58;21.24
1926;BME280;964;42.606;23.588;2023-02-05T10:55:23;94953.69;;;19.39;19.48
1926;BME280;964;42.606;23.588;2023-02-05T10:57:50;94959.03;;;18.84;20.29
1926;BME280;964;42.606;23.588;2023-02-05T11:00:18;94961.44;;;18.57;20.72
1926;BME280;964;42.606;23.588;2023-02-05T11:02:48;94960.53;;;18.92;20.47
1926;BME280;964;42.606;23.588;2023-02-05T11:05:22;94959.47;;;18.72;20.82
1926;BME280;964;42.606;23.588;2023-02-05T11:07:51;94949.38;;;20.41;18.62
1926;BME280;964;42.606;23.588;2023-02-05T11:10:19;94945.50;;;21.60;17.96
1926;BME280;964;42.606;23.588;2023-02-05T11:12:48;94948.66;;;21.01;18.05
1926;BME280;964;42.606;23.588;2023-02-05T11:15:22;94927.59;;;22.56;17.09
1926;BME280;964;42.606;23.588;2023-02-05T11:17:50;94954.38;;;21.34;16.64
1926;BME280;964;42.606;23.588;2023-02-05T11:20:25;94935.31;;;21.94;16.88
1926;BME280;964;42.606;23.588;2023-02-05T11:23:06;94947.84;;;22.05;17.43
1926;BME280;964;42.606;23.588;2023-02-05T11:25:33;94953.56;;;21.37;17.50
1926;BME280;964;42.606;23.588;2023-02-05T11:28:01;94960.19;;;20.72;17.91
1926;BME280;964;42.606;23.588;2023-02-05T11:30:30;94969.63;;;19.05;18.81
1926;BME280;964;42.606;23.588;2023-02-05T11:33:17;94954.72;;;19.63;18.95
1926;BME280;964;42.606;23.588;2023-02-05T11:35:53;94963.25;;;19.51;18.88
1926;BME280;964;42.606;23.588;2023-02-05T11:38:25;94970.06;;;20.48;17.70
1926;BME280;964;42.606;23.588;2023-02-05T11:40:57;94959.44;;;20.34;17.55
1926;BME280;964;42.606;23.588;2023-02-05T11:43:26;94961.84;;;20.25;17.83
1926;BME280;964;42.606;23.588;2023-02-05T11:45:55;94963.81;;;19.76;18.33
1926;BME280;964;42.606;23.588;2023-02-05T11:48:30;94958.69;;;19.41;17.87
1926;BME280;964;42.606;23.588;2023-02-05T11:51:00;94968.88;;;19.12;18.86
1926;BME280;964;42.606;23.588;2023-02-05T11:53:28;94963.25;;;19.99;18.15
1926;BME280;964;42.606;23.588;2023-02-05T11:55:59;94962.63;;;19.81;18.07
1926;BME280;964;42.606;23.588;2023-02-05T11:58:27;94962.84;;;18.87;18.25
1926;BME280;964;42.606;23.588;2023-02-05T12:00:57;94972.69;;;18.06;19.76
1926;BME280;964;42.606;23.588;2023-02-05T12:03:26;94967.09;;;18.81;18.90
1926;BME280;964;42.606;23.588;2023-02-05T12:06:01;94965.19;;;18.81;19.21
1926;BME280;964;42.606;23.588;2023-02-05T12:08:35;94970.63;;;18.64;19.01
1926;BME280;964;42.606;23.588;2023-02-05T12:11:14;94973.03;;;18.12;18.91
1926;BME280;964;42.606;23.588;2023-02-05T12:13:52;94981.88;;;17.98;19.71
1926;BME280;964;42.606;23.588;2023-02-05T12:16:33;94994.09;;;17.36;19.98
1926;BME280;964;42.606;23.588;2023-02-05T12:19:16;94989.59;;;16.50;20.66
1926;BME280;964;42.606;23.588;2023-02-05T12:21:48;94975.25;;;18.56;19.53
1926;BME280;964;42.606;23.588;2023-02-05T12:24:46;94969.59;;;19.20;19.11
1926;BME280;964;42.606;23.588;2023-02-05T12:27:24;94962.44;;;19.54;18.55
1926;BME280;964;42.606;23.588;2023-02-05T12:30:10;94979.06;;;18.55;19.47
1926;BME280;964;42.606;23.588;2023-02-05T12:32:45;94974.88;;;19.30;18.64
1926;BME280;964;42.606;23.588;2023-02-05T12:35:32;94980.34;;;19.16;18.27
1926;BME280;964;42.606;23.588;2023-02-05T12:38:10;94986.00;;;18.45;18.08
1926;BME280;964;42.606;23.588;2023-02-05T12:40:46;94992.19;;;18.25;19.23
1926;BME280;964;42.606;23.588;2023-02-05T12:43:30;94990.47;;;18.80;19.10
1926;BME280;964;42.606;23.588;2023-02-05T12:46:09;94990.59;;;19.32;18.01
1926;BME280;964;42.606;23.588;2023-02-05T12:48:51;94985.69;;;19.20;18.07
1926;BME280;964;42.606;23.588;2023-02-05T12:51:34;94994.47;;;18.26;19.17
1926;BME280;964;42.606;23.588;2023-02-05T12:54:19;94991.75;;;18.51;19.86
1926;BME280;964;42.606;23.588;2023-02-05T12:56:55;94999.88;;;18.01;20.30
1926;BME280;964;42.606;23.588;2023-02-05T12:59:32;95007.16;;;17.69;19.50
1926;BME280;964;42.606;23.588;2023-02-05T13:02:04;95001.00;;;17.51;20.40
1926;BME280;964;42.606;23.588;2023-02-05T13:04:35;95003.28;;;18.27;19.85
1926;BME280;964;42.606;23.588;2023-02-05T13:07:09;95003.72;;;17.79;19.29
1926;BME280;964;42.606;23.588;2023-02-05T13:09:44;95001.19;;;19.60;19.02
1926;BME280;964;42.606;23.588;2023-02-05T13:12:15;94999.38;;;18.67;19.49
1926;BME280;964;42.606;23.588;2023-02-05T13:14:47;94982.44;;;20.42;17.74
1926;BME280;964;42.606;23.588;2023-02-05T13:17:21;94994.50;;;20.64;17.84
1926;BME280;964;42.606;23.588;2023-02-05T13:19:52;94994.25;;;20.85;17.08
1926;BME280;964;42.606;23.588;2023-02-05T13:22:23;94985.66;;;20.97;17.66
1926;BME280;964;42.606;23.588;2023-02-05T13:25:17;94990.06;;;21.68;16.74
1926;BME280;964;42.606;23.588;2023-02-05T13:28:16;94989.34;;;21.07;17.29
1926;BME280;964;42.606;23.588;2023-02-05T13:31:03;94992.72;;;21.45;16.93
1926;BME280;964;42.606;23.588;2023-02-05T13:33:31;94990.78;;;20.85;17.85
1926;BME280;964;42.606;23.588;2023-02-05T13:36:13;94987.59;;;21.27;16.69
1926;BME280;964;42.606;23.588;2023-02-05T13:38:51;94996.00;;;20.31;17.58
1926;BME280;964;42.606;23.588;2023-02-05T13:41:36;95001.31;;;18.52;19.27
1926;BME280;964;42.606;23.588;2023-02-05T13:44:25;95002.81;;;18.67;19.55
1926;BME280;964;42.606;23.588;2023-02-05T13:47:19;95002.84;;;18.49;19.95
1926;BME280;964;42.606;23.588;2023-02-05T13:50:21;95000.28;;;19.19;19.04